Time;durP1;ratioP1;P1;durP2;ratioP2;P2;SDS_P1;SDS_P2;PMS_P1;PMS_P2;Temp;Humidity;BMP_temperature;BMP_pressure;BME280_temperature;BME280_humidity;BME280_pressure;Samples;Min_cycle;Max_cycle;Signal;HPM_P1;HPM_P2
2023/05/16 00:00:34;;;;;;;7.40;2.00;;;;;;;9.19;75.02;101562.78;4840618;29;20034;-86
2023/05/16 00:03:01;;;;;;;4.68;2.17;;;;;;;9.16;74.64;101559.59;4843451;29;20030;-86
2023/05/16 00:05:39;;;;;;;6.07;2.28;;;;;;;9.07;74.19;101569.50;4838894;29;20106;-86
2023/05/16 00:08:05;;;;;;;7.72;2.28;;;;;;;9.08;74.17;101571.19;4842295;29;20034;-87
2023/05/16 00:10:33;;;;;;;5.85;2.17;;;;;;;9.04;74.28;101565.31;4842071;29;20082;-87
2023/05/16 00:13:00;;;;;;;9.73;2.28;;;;;;;9.04;73.78;101572.53;4840865;29;20197;-86
2023/05/16 00:15:26;;;;;;;12.55;2.50;;;;;;;9.00;74.32;101565.84;4842240;29;20121;-87
2023/05/16 00:18:03;;;;;;;5.70;2.30;;;;;;;8.88;74.26;101555.41;4843329;29;20062;-86
2023/05/16 00:20:34;;;;;;;11.63;2.47;;;;;;;8.89;73.98;101567.84;4844951;29;20026;-86
2023/05/16 00:23:00;;;;;;;10.85;2.70;;;;;;;8.87;74.22;101580.59;4840923;29;20053;-86
2023/05/16 00:25:25;;;;;;;;;;;;;;;8.82;74.29;101584.78;4839902;29;20034;-86
2023/05/16 00:27:53;;;;;;;5.47;2.20;;;;;;;8.75;74.71;101576.56;4839151;29;20425;-86
2023/05/16 00:30:19;;;;;;;10.00;2.65;;;;;;;8.77;74.67;101585.31;4841932;29;20128;-86
2023/05/16 00:32:44;;;;;;;;;;;;;;;8.71;74.66;101573.38;4841931;29;20030;-86
2023/05/16 00:35:10;;;;;;;11.30;2.43;;;;;;;8.72;75.31;101576.91;4845751;29;19924;-86
2023/05/16 00:37:37;;;;;;;13.98;2.95;;;;;;;8.68;75.10;101579.09;4831378;29;20321;-86
2023/05/16 00:40:03;;;;;;;8.45;2.67;;;;;;;8.56;75.33;101575.88;4841975;29;20034;-86
2023/05/16 00:42:29;;;;;;;12.57;3.03;;;;;;;8.60;75.33;101585.28;4824035;29;20038;-86
2023/05/16 00:45:05;;;;;;;;;;;;;;;8.55;75.26;101582.25;4837580;29;20079;-86
2023/05/16 00:47:30;;;;;;;10.27;2.85;;;;;;;8.46;75.16;101583.22;4842475;29;19921;-86
2023/05/16 00:49:56;;;;;;;;;;;;;;;8.42;75.89;101582.69;4842942;29;20466;-86
2023/05/16 00:52:21;;;;;;;9.80;3.00;;;;;;;8.38;75.56;101580.50;4824291;29;19921;-87
2023/05/16 00:54:46;;;;;;;;;;;;;;;8.29;76.30;101587.69;4825822;29;20294;-86
2023/05/16 00:57:12;;;;;;;9.17;2.50;;;;;;;8.20;76.44;101586.84;4825818;29;20421;-86
2023/05/16 00:59:37;;;;;;;;;;;;;;;8.12;76.58;101586.81;4824422;29;20030;-86
2023/05/16 01:02:02;;;;;;;12.57;3.23;;;;;;;8.03;77.38;101584.09;4825139;29;19988;-86
2023/05/16 01:04:28;;;;;;;;;;;;;;;8.04;76.75;101584.94;4841588;29;20435;-86
2023/05/16 01:06:54;;;;;;;11.00;3.10;;;;;;;7.93;77.11;101578.03;4839163;29;20545;-86
2023/05/16 01:09:20;;;;;;;12.88;2.67;;;;;;;7.91;77.56;101584.53;4841962;29;20854;-87
2023/05/16 01:11:46;;;;;;;;;;;;;;;7.85;77.31;101586.03;4841228;29;20045;-87
2023/05/16 01:14:17;;;;;;;7.47;2.50;;;;;;;7.87;77.78;101584.88;4837707;29;20447;-86
2023/05/16 01:16:58;;;;;;;12.38;3.38;;;;;;;7.85;77.49;101580.69;4823972;29;20057;-86
2023/05/16 01:19:48;;;;;;;9.43;2.90;;;;;;;7.78;77.33;101585.00;4840101;29;20446;-86
2023/05/16 01:22:37;;;;;;;13.80;2.80;;;;;;;7.72;77.74;101589.16;4839815;29;20601;-86
2023/05/16 01:25:33;;;;;;;10.80;2.47;;;;;;;7.71;77.83;101590.16;4821970;29;20083;-86
2023/05/16 01:27:59;;;;;;;10.80;2.67;;;;;;;7.69;77.91;101598.38;4840898;29;20030;-86
2023/05/16 01:30:24;;;;;;;;;;;;;;;7.58;78.00;101595.97;4820572;29;20037;-85
2023/05/16 01:32:50;;;;;;;10.48;2.63;;;;;;;7.55;78.16;101601.63;4839875;29;19967;-86
2023/05/16 01:35:15;;;;;;;;;;;;;;;7.47;77.97;101602.44;4839096;29;20053;-86
2023/05/16 01:37:46;;;;;;;14.35;2.38;;;;;;;7.42;77.69;101597.53;4823905;29;20389;-86
2023/05/16 01:40:13;;;;;;;14.27;2.45;;;;;;;7.37;78.13;101602.53;4839357;29;20030;-86
2023/05/16 01:42:41;;;;;;;14.73;3.42;;;;;;;7.28;78.65;101595.41;4831654;29;20029;-86
2023/05/16 01:45:17;;;;;;;8.15;2.45;;;;;;;7.26;78.60;101605.44;4820035;29;20119;-86
2023/05/16 01:47:44;;;;;;;13.15;2.90;;;;;;;7.20;78.85;101604.25;4806209;29;20120;-86
2023/05/16 01:50:19;;;;;;;12.50;2.50;;;;;;;7.17;78.33;101601.03;4819870;29;20026;-85
2023/05/16 01:53:02;;;;;;;9.35;2.55;;;;;;;7.13;78.98;101603.19;4837103;29;20066;-85
2023/05/16 01:55:48;;;;;;;12.15;2.30;;;;;;;7.06;78.70;101607.47;4820392;29;20034;-86
2023/05/16 01:58:14;;;;;;;14.25;2.50;;;;;;;7.05;79.10;101609.34;4822685;29;20056;-85
2023/05/16 02:00:40;;;;;;;9.65;2.40;;;;;;;7.02;79.26;101614.13;4822113;29;20042;-86
2023/05/16 02:03:06;;;;;;;;;;;;;;;6.99;79.00;101620.66;4823743;29;20544;-85
2023/05/16 02:05:33;;;;;;;10.90;2.03;;;;;;;6.96;78.85;101623.63;4824637;29;19975;-85
2023/05/16 02:07:58;;;;;;;11.25;2.30;;;;;;;6.87;78.97;101614.69;4814352;29;20753;-85
2023/05/16 02:10:24;;;;;;;;;;;;;;;6.88;79.29;101628.94;4820544;29;20038;-85
2023/05/16 02:12:49;;;;;;;9.00;2.10;;;;;;;6.80;79.61;101626.97;4823279;29;19931;-85
2023/05/16 02:15:15;;;;;;;;;;;;;;;6.73;79.81;101629.44;4827545;29;20026;-85
2023/05/16 02:17:40;;;;;;;14.02;2.40;;;;;;;6.65;80.23;101634.72;4826502;29;19920;-85
2023/05/16 02:20:09;;;;;;;;;;;;;;;6.56;80.20;101632.94;4827312;29;20030;-82
2023/05/16 02:22:35;;;;;;;10.60;2.60;;;;;;;6.48;80.66;101626.53;4826237;29;20382;-83
2023/05/16 02:25:00;;;;;;;;;;;;;;;6.45;80.68;101628.63;4826627;29;20045;-80
2023/05/16 02:27:25;;;;;;;11.90;2.63;;;;;;;6.38;80.58;101641.78;4829438;29;19920;-79
2023/05/16 02:29:51;;;;;;;;;;;;;;;6.33;80.83;101641.41;4833495;29;20103;-79
2023/05/16 02:32:19;;;;;;;13.53;2.57;;;;;;;6.27;80.98;101642.81;4828983;29;19927;-83
2023/05/16 02:34:46;;;;;;;11.18;2.10;;;;;;;6.24;81.02;101642.28;4823850;29;20050;-81
2023/05/16 02:37:11;;;;;;;12.40;2.22;;;;;;;6.19;80.88;101648.91;4827646;29;20108;-80
2023/05/16 02:39:37;;;;;;;;;;;;;;;6.12;81.32;101647.84;4821383;29;20037;-82
2023/05/16 02:42:05;;;;;;;10.57;2.15;;;;;;;6.05;81.67;101641.38;4814319;29;20007;-87
2023/05/16 02:44:32;;;;;;;9.30;2.30;;;;;;;6.01;81.41;101656.88;4843477;29;20042;-85
2023/05/16 02:47:00;;;;;;;9.48;2.10;;;;;;;5.98;81.67;101653.63;4842654;29;20044;-86
2023/05/16 02:49:25;;;;;;;8.70;2.28;;;;;;;5.96;81.67;101659.09;4842664;29;20112;-88
2023/05/16 02:51:50;;;;;;;;;;;;;;;5.89;81.42;101664.19;4841500;29;20098;-86
2023/05/16 02:54:16;;;;;;;11.70;2.50;;;;;;;5.80;82.20;101664.22;4845546;29;20424;-86
2023/05/16 02:56:41;;;;;;;;;;;;;;;5.74;81.99;101671.00;4845561;29;20398;-86
2023/05/16 02:59:07;;;;;;;13.77;2.23;;;;;;;5.65;82.40;101671.88;4841439;29;19920;-86
2023/05/16 03:01:33;;;;;;;7.38;1.88;;;;;;;5.63;82.92;101669.34;4838924;29;20042;-86
2023/05/16 03:03:58;;;;;;;;;;;;;;;5.60;83.05;101675.81;4841623;29;20044;-86
2023/05/16 03:06:24;;;;;;;10.73;2.53;;;;;;;5.54;82.93;101681.72;4840376;29;19932;-86
2023/05/16 03:08:49;;;;;;;;;;;;;;;5.49;82.74;101675.97;4843947;29;20032;-85
2023/05/16 03:11:17;;;;;;;7.30;2.10;;;;;;;5.43;83.33;101677.38;4844885;29;20323;-85
2023/05/16 03:13:43;;;;;;;9.13;2.10;;;;;;;5.39;83.73;101680.47;4826188;29;20041;-85
2023/05/16 03:16:08;;;;;;;12.68;2.58;;;;;;;5.31;83.48;101684.69;4844580;29;20073;-87
2023/05/16 03:18:34;;;;;;;10.18;2.50;;;;;;;5.25;84.27;101685.28;4843613;29;20030;-86
2023/05/16 03:21:02;;;;;;;;;;;;;;;5.23;84.25;101679.22;4843557;29;20042;-86
2023/05/16 03:23:27;;;;;;;7.30;2.30;;;;;;;5.18;84.55;101680.66;4843124;29;19928;-85
2023/05/16 03:25:53;;;;;;;7.75;2.20;;;;;;;5.19;84.10;101685.84;4843649;29;20034;-86
2023/05/16 03:28:18;;;;;;;;;;;;;;;5.09;84.39;101687.66;4842774;29;20072;-86
2023/05/16 03:30:43;;;;;;;9.10;2.00;;;;;;;4.97;84.33;101693.13;4844262;29;19927;-86
2023/05/16 03:33:09;;;;;;;9.98;2.28;;;;;;;5.00;85.11;101692.03;4842661;29;20647;-86
2023/05/16 03:35:34;;;;;;;;;;;;;;;4.92;85.54;101690.06;4901680;24;20055;-86
2023/05/16 03:38:12;;;;;;;9.63;2.10;;;;;;;4.92;85.11;101700.72;4841174;29;20375;-85
2023/05/16 03:40:55;;;;;;;9.80;2.10;;;;;;;4.96;85.04;101693.28;4815636;29;20038;-86
2023/05/16 03:43:21;;;;;;;7.65;2.00;;;;;;;4.92;85.48;101699.88;4812468;29;20125;-86
2023/05/16 04:14:54;;;;;;;7.32;1.80;;;;;;;5.16;85.00;101716.31;4827834;24;20047;-84
2023/05/16 04:17:26;;;;;;;7.10;1.92;;;;;;;5.23;84.46;101721.09;4836887;29;20049;-81
2023/05/16 04:23:13;;;;;;;11.35;2.40;;;;;;;5.44;84.06;101715.63;4836464;29;20140;-85
2023/05/16 04:25:56;;;;;;;;;;;;;;;5.54;83.00;101729.81;4841963;29;20467;-83
2023/05/16 04:28:22;;;;;;;17.17;2.72;;;;;;;5.63;82.62;101735.28;4882696;24;20389;-82
2023/05/16 04:30:56;;;;;;;;;;;;;;;5.71;82.86;101746.09;4829151;29;20228;-82
2023/05/16 04:39:53;;;;;;;11.82;2.10;;;;;;;6.03;81.06;101748.47;5758811;24;20306;-82
2023/05/16 04:42:55;;;;;;;11.48;2.65;;;;;;;6.13;80.91;101747.56;4828312;29;20038;-83
2023/05/16 04:49:21;;;;;;;9.07;1.90;;;;;;;6.32;79.99;101755.53;4831871;29;20072;-85
2023/05/16 04:51:55;;;;;;;8.88;2.08;;;;;;;6.45;79.62;101757.88;5250066;24;20064;-84
2023/05/16 05:16:33;;;;;;;12.00;2.30;;;;;;;11.56;61.65;101776.56;5356829;24;20649;-85
2023/05/16 05:18:59;;;;;;;9.93;2.00;;;;;;;12.01;60.10;101774.81;4840784;29;20034;-85
2023/05/16 05:21:24;;;;;;;14.73;2.45;;;;;;;12.23;59.69;101773.09;4832137;29;20038;-85
2023/05/16 05:23:50;;;;;;;8.27;2.33;;;;;;;12.29;58.27;101785.00;4831426;29;20046;-86
2023/05/16 05:48:23;;;;;;;14.13;2.30;;;;;;;10.01;65.42;101800.25;4841255;29;20062;-84
2023/05/16 05:51:20;;;;;;;12.32;3.00;;;;;;;9.98;66.64;101805.97;4852219;29;20046;-84
2023/05/16 05:53:45;;;;;;;14.73;2.20;;;;;;;9.90;65.68;101795.22;4840395;29;20105;-84
2023/05/16 05:56:55;;;;;;;11.18;2.10;;;;;;;10.21;65.50;101808.81;4834040;29;20062;-85
2023/05/16 05:59:30;;;;;;;9.05;1.92;;;;;;;10.71;65.23;101801.47;4812782;29;20515;-84
2023/05/16 06:01:55;;;;;;;12.57;2.45;;;;;;;11.18;63.03;101810.50;4837889;29;20050;-84
2023/05/16 06:04:21;;;;;;;7.20;2.20;;;;;;;12.37;59.98;101808.38;4827731;29;20044;-84
2023/05/16 06:06:55;;;;;;;6.90;1.95;;;;;;;14.02;54.44;101814.19;4841841;29;20029;-85
2023/05/16 06:09:32;;;;;;;9.25;2.30;;;;;;;14.21;53.54;101812.66;4841171;29;20105;-85
2023/05/16 06:15:39;;;;;;;6.35;1.67;;;;;;;16.21;49.26;101816.22;4802677;29;20053;-85
2023/05/16 06:18:41;;;;;;;;;;;;;;;;;;;;;
2023/05/16 06:21:44;;;;;;;9.82;2.03;;;;;;;15.77;46.32;101823.09;4743183;30;20048;-85
2023/05/16 06:24:19;;;;;;;7.07;1.80;;;;;;;16.20;45.96;101833.56;4731313;30;20076;-85
2023/05/16 06:26:48;;;;;;;7.47;2.00;;;;;;;16.54;46.11;101827.25;4739629;30;20088;-86
2023/05/16 06:29:13;;;;;;;8.52;2.08;;;;;;;17.50;45.00;101838.34;4762260;30;20036;-85
2023/05/16 06:31:42;;;;;;;10.57;1.90;;;;;;;17.96;44.58;101837.19;4794639;29;20053;-86
2023/05/16 06:40:36;;;;;;;8.93;2.15;;;;;;;19.58;39.12;101832.63;5019350;24;20058;-84
2023/05/16 06:43:32;;;;;;;8.75;2.05;;;;;;;19.45;40.99;101834.47;4850992;29;20042;-85
2023/05/16 06:46:13;;;;;;;7.90;2.22;;;;;;;19.46;40.43;101838.88;4843262;29;20065;-84
2023/05/16 06:48:44;;;;;;;7.40;1.80;;;;;;;20.02;36.89;101838.66;4841940;29;20030;-85
2023/05/16 06:51:13;;;;;;;8.25;1.90;;;;;;;20.44;36.13;101827.63;4900022;24;20534;-85
2023/05/16 06:53:49;;;;;;;5.63;1.92;;;;;;;20.27;36.03;101840.34;4835476;29;20027;-85
2023/05/16 06:56:14;;;;;;;5.28;1.65;;;;;;;20.99;35.02;101841.06;4830694;29;20152;-85
2023/05/16 06:58:40;;;;;;;7.22;1.95;;;;;;;20.12;35.82;101844.38;4828631;29;20042;-85
2023/05/16 07:01:11;;;;;;;9.77;2.10;;;;;;;19.85;36.49;101849.44;4841538;29;20475;-85
2023/05/16 07:03:36;;;;;;;6.88;1.80;;;;;;;19.33;40.30;101853.53;4839166;29;20375;-85
2023/05/16 07:06:02;;;;;;;6.55;1.80;;;;;;;20.32;36.73;101842.38;4837683;29;20131;-85
2023/05/16 07:08:29;;;;;;;6.93;1.73;;;;;;;21.04;34.94;101844.75;4824086;29;20463;-85
2023/05/16 07:11:16;;;;;;;5.75;1.65;;;;;;;21.19;35.31;101846.97;4829972;29;20069;-85
2023/05/16 07:13:42;;;;;;;6.10;1.75;;;;;;;21.51;34.79;101849.19;4836041;29;20049;-85
2023/05/16 07:16:16;;;;;;;8.45;1.73;;;;;;;20.37;36.01;101854.25;4834131;29;20034;-85
2023/05/16 07:18:47;;;;;;;6.93;1.80;;;;;;;20.72;36.75;101853.38;4828620;29;20048;-85
2023/05/16 07:21:24;;;;;;;5.28;1.50;;;;;;;21.63;35.02;101843.69;4841528;29;20120;-85
2023/05/16 07:23:50;;;;;;;6.47;1.67;;;;;;;20.98;35.21;101848.47;4841013;24;20058;-85
2023/05/16 07:26:15;;;;;;;6.22;1.63;;;;;;;21.52;33.05;101852.78;4824738;29;20491;-85
2023/05/16 07:28:41;;;;;;;8.65;1.85;;;;;;;22.25;31.95;101863.84;4829948;29;20034;-85
2023/05/16 07:31:07;;;;;;;4.75;1.73;;;;;;;23.01;30.79;101867.94;4828669;29;20121;-87
2023/05/16 07:33:32;;;;;;;7.72;1.60;;;;;;;22.77;30.55;101866.50;4821363;29;20035;-85
2023/05/16 07:35:58;;;;;;;2.88;1.50;;;;;;;21.85;31.58;101864.88;4818029;29;20035;-85
2023/05/16 07:38:23;;;;;;;3.83;1.70;;;;;;;20.54;33.48;101854.38;4821393;29;20403;-85
2023/05/16 07:40:48;;;;;;;5.95;1.83;;;;;;;20.72;33.52;101858.84;4825565;29;20049;-85
2023/05/16 07:43:14;;;;;;;7.07;1.60;;;;;;;20.74;34.06;101856.69;4824362;29;20037;-86
2023/05/16 07:45:39;;;;;;;7.25;1.60;;;;;;;21.40;33.17;101851.97;4822634;29;20034;-85
2023/05/16 07:48:04;;;;;;;5.50;1.48;;;;;;;21.83;31.26;101856.06;4821527;29;20041;-86
2023/05/16 07:50:30;;;;;;;5.03;1.45;;;;;;;21.65;31.28;101847.00;4825512;29;20038;-86
2023/05/16 07:52:55;;;;;;;5.68;1.65;;;;;;;21.54;30.61;101852.50;4824274;29;20038;-86
2023/05/16 07:55:21;;;;;;;4.95;1.30;;;;;;;21.04;31.61;101855.69;4825304;29;20066;-85
2023/05/16 07:57:47;;;;;;;6.65;1.70;;;;;;;22.06;31.73;101860.53;4840695;29;20049;-86
2023/05/16 08:00:13;;;;;;;6.90;1.50;;;;;;;21.59;30.80;101860.84;4815259;29;20041;-85
2023/05/16 08:02:41;;;;;;;4.65;1.42;;;;;;;21.58;31.89;101865.47;4839137;29;20063;-85
2023/05/16 08:05:07;;;;;;;5.82;1.50;;;;;;;21.49;31.77;101864.22;4815792;29;20082;-85
2023/05/16 08:07:32;;;;;;;5.88;1.67;;;;;;;20.47;32.63;101866.50;4835089;29;20420;-85
2023/05/16 08:09:58;;;;;;;3.85;1.38;;;;;;;19.44;35.75;101862.84;4809558;29;20146;-86
2023/05/16 08:12:23;;;;;;;9.25;1.58;;;;;;;20.29;33.96;101860.09;4826878;29;20376;-85
2023/05/16 08:14:52;;;;;;;3.80;1.10;;;;;;;19.80;34.06;101852.84;4824516;29;20050;-85
2023/05/16 08:17:23;;;;;;;4.68;1.38;;;;;;;19.65;34.60;101852.47;4822862;29;20040;-87
2023/05/16 08:19:48;;;;;;;4.90;1.52;;;;;;;19.39;35.08;101851.81;4817445;29;20041;-85
2023/05/16 08:22:14;;;;;;;5.25;1.50;;;;;;;18.61;35.52;101857.75;4835839;29;20904;-85
2023/05/16 08:24:40;;;;;;;4.45;1.30;;;;;;;18.64;35.54;101862.78;4825515;29;20062;-85
2023/05/16 08:30:13;;;;;;;3.40;1.25;;;;;;;17.95;37.18;101859.19;4888274;24;20042;-84
2023/05/16 08:32:42;;;;;;;7.22;1.40;;;;;;;17.00;39.45;101875.22;4825849;29;20069;-85
2023/05/16 08:35:11;;;;;;;8.88;1.27;;;;;;;15.75;43.24;101865.91;4836461;29;20467;-84
2023/05/16 08:37:37;;;;;;;3.03;1.10;;;;;;;14.52;46.77;101878.31;4843495;29;20407;-84
2023/05/16 08:40:31;;;;;;;2.88;0.75;;;;;;;13.53;49.91;101875.34;4842929;29;20034;-87
2023/05/16 08:42:57;;;;;;;1.88;0.82;;;;;;;12.92;52.82;101873.78;4831544;29;20094;-84
2023/05/16 08:45:22;;;;;;;4.35;1.02;;;;;;;13.51;51.94;101871.19;4812913;29;20436;-85
2023/05/16 08:47:50;;;;;;;3.50;0.82;;;;;;;14.70;49.50;101875.13;4807910;29;20045;-84
2023/05/16 08:50:15;;;;;;;2.55;0.93;;;;;;;15.09;48.01;101880.94;4839919;29;20467;-84
2023/05/16 08:52:41;;;;;;;2.40;1.10;;;;;;;14.49;49.39;101881.41;4833599;29;20042;-84
2023/05/16 08:55:08;;;;;;;2.15;1.00;;;;;;;13.87;50.83;101878.41;4833212;29;20463;-84
2023/05/16 08:57:34;;;;;;;2.83;0.90;;;;;;;13.59;51.77;101877.31;4829789;29;20026;-84
2023/05/16 08:59:59;;;;;;;2.72;0.93;;;;;;;14.09;50.27;101880.09;4817752;29;20079;-84
2023/05/16 09:02:33;;;;;;;2.22;0.90;;;;;;;14.01;50.61;101880.19;4838261;29;20049;-84
2023/05/16 09:04:59;;;;;;;3.95;1.08;;;;;;;15.62;47.08;101877.56;4825319;29;20038;-84
2023/05/16 09:07:24;;;;;;;3.40;0.90;;;;;;;17.45;44.11;101868.13;4828644;29;20494;-85
2023/05/16 09:09:50;;;;;;;3.45;1.00;;;;;;;18.61;39.80;101873.31;4839388;29;20042;-85
2023/05/16 09:12:15;;;;;;;3.22;1.10;;;;;;;19.11;40.17;101866.03;4848662;29;20046;-85
2023/05/16 09:15:44;;;;;;;2.50;0.93;;;;;;;20.94;36.57;101868.34;4851042;29;20046;-84
2023/05/16 09:21:51;;;;;;;2.78;0.93;;;;;;;21.65;34.50;101849.75;4834486;29;20061;-85
2023/05/16 09:24:22;;;;;;;3.10;1.17;;;;;;;22.26;35.03;101861.94;4825489;29;20038;-85
2023/05/16 09:26:47;;;;;;;2.70;1.20;;;;;;;22.70;31.99;101861.22;4808029;29;20876;-85
2023/05/16 09:32:13;;;;;;;3.28;1.10;;;;;;;23.41;30.58;101863.16;4838115;24;20094;-84
2023/05/16 09:34:48;;;;;;;3.88;1.20;;;;;;;23.34;28.47;101859.78;4834367;29;20491;-84
2023/05/16 09:39:49;;;;;;;3.92;1.15;;;;;;;23.21;30.19;101855.53;4850138;24;20114;-84
2023/05/16 09:42:15;;;;;;;3.33;1.10;;;;;;;21.91;30.72;101855.63;4841540;29;20061;-84
2023/05/16 09:44:51;;;;;;;2.38;0.88;;;;;;;21.09;31.83;101862.34;4840826;29;20085;-84
2023/05/16 09:47:16;;;;;;;;;;;;;;;21.08;32.42;101860.69;4830624;29;20025;-84
2023/05/16 09:49:43;;;;;;;2.65;1.17;;;;;;;20.59;32.49;101867.31;4831502;29;20350;-84
2023/05/16 09:52:08;;;;;;;2.20;1.00;;;;;;;19.80;30.87;101862.97;4831122;29;20289;-84
2023/05/16 09:55:07;;;;;;;2.42;1.00;;;;;;;20.58;29.65;101854.72;4822062;29;20027;-83
2023/05/16 09:58:04;;;;;;;3.15;1.02;;;;;;;20.84;30.45;101872.53;4794752;29;20041;-84
2023/05/16 10:00:33;;;;;;;2.38;1.30;;;;;;;20.78;30.56;101861.72;4819233;29;20039;-84
2023/05/16 10:03:04;;;;;;;3.03;1.25;;;;;;;21.43;30.57;101852.34;4829577;29;20027;-84
2023/05/16 10:05:51;;;;;;;2.40;1.10;;;;;;;22.78;30.83;101869.00;4828651;29;20535;-84
2023/05/16 10:08:40;;;;;;;2.92;1.27;;;;;;;22.27;29.81;101855.38;4829215;29;20498;-84
2023/05/16 10:11:06;;;;;;;3.10;1.20;;;;;;;23.88;26.99;101864.41;4833051;24;20061;-84
2023/05/16 10:13:51;;;;;;;3.88;1.40;;;;;;;24.20;24.74;101860.00;4831942;29;20026;-85
2023/05/16 10:19:38;;;;;;;3.45;1.30;;;;;;;25.13;24.60;101864.06;4974482;24;19932;-84
2023/05/16 10:22:05;;;;;;;3.60;1.10;;;;;;;25.15;24.54;101855.50;4828302;29;20037;-86
2023/05/16 10:24:38;;;;;;;3.17;1.30;;;;;;;24.17;25.37;101864.09;4838713;29;20108;-84
2023/05/16 10:27:04;;;;;;;3.42;1.13;;;;;;;22.57;26.33;101870.63;4821692;29;20038;-85
2023/05/16 10:29:29;;;;;;;2.88;1.10;;;;;;;22.29;27.11;101863.34;4806255;29;20462;-85
2023/05/16 10:31:55;;;;;;;2.80;1.20;;;;;;;21.82;28.49;101870.84;4829653;29;20027;-85
2023/05/16 10:34:20;;;;;;;3.05;1.40;;;;;;;21.72;30.29;101867.91;4815630;29;20026;-85
2023/05/16 10:36:46;;;;;;;3.17;0.93;;;;;;;21.51;31.53;101867.53;4833527;29;20383;-85
2023/05/16 10:39:11;;;;;;;3.85;1.30;;;;;;;22.03;30.69;101863.78;4812638;29;20243;-85
2023/05/16 10:41:37;;;;;;;2.92;1.10;;;;;;;20.61;32.59;101859.69;4825925;29;20045;-85
2023/05/16 10:44:03;;;;;;;4.78;1.27;;;;;;;19.58;34.45;101859.94;4816408;29;20048;-85
2023/05/16 10:46:30;;;;;;;3.45;1.23;;;;;;;19.58;34.70;101859.94;5055906;24;20054;-85
2023/05/16 10:48:55;;;;;;;4.00;1.23;;;;;;;18.95;35.79;101873.78;4825937;29;20034;-85
2023/05/16 10:51:33;;;;;;;3.45;1.02;;;;;;;17.61;37.51;101859.44;4825906;29;20038;-84
2023/05/16 10:54:05;;;;;;;4.93;1.20;;;;;;;17.64;37.75;101863.59;4838201;29;20052;-84
2023/05/16 10:56:31;;;;;;;1.83;0.95;;;;;;;18.10;36.70;101861.63;4834364;29;20046;-85
2023/05/16 10:58:56;;;;;;;3.80;1.05;;;;;;;19.48;34.06;101866.78;4826998;29;20050;-84
2023/05/16 11:01:23;;;;;;;3.42;0.95;;;;;;;20.24;33.25;101862.69;4844411;29;20113;-85
2023/05/16 11:03:57;;;;;;;5.68;1.20;;;;;;;21.79;31.37;101858.47;4854731;29;20085;-85
2023/05/16 11:06:26;;;;;;;4.88;1.15;;;;;;;22.08;29.77;101860.28;4854004;29;20045;-85
2023/05/16 11:09:10;;;;;;;2.75;1.10;;;;;;;22.75;29.43;101858.53;4839556;29;20026;-85
2023/05/16 11:11:48;;;;;;;3.22;1.20;;;;;;;24.22;25.88;101861.41;4838406;29;20041;-85
2023/05/16 11:14:23;;;;;;;2.88;1.23;;;;;;;24.75;25.94;101857.03;4831760;29;20049;-85
2023/05/16 11:16:58;;;;;;;2.83;1.30;;;;;;;23.94;26.11;101840.53;4836845;29;20064;-85
2023/05/16 11:19:39;;;;;;;2.85;1.13;;;;;;;23.86;26.30;101852.84;4822074;29;20736;-85
2023/05/16 11:22:14;;;;;;;3.63;1.45;;;;;;;24.14;26.17;101852.81;4837236;29;20411;-84
2023/05/16 11:24:48;;;;;;;5.38;1.25;;;;;;;24.14;26.45;101858.31;4832744;29;20038;-84
2023/05/16 11:27:13;;;;;;;3.85;1.45;;;;;;;23.46;26.17;101849.50;4823729;29;20379;-85
2023/05/16 11:29:39;;;;;;;4.10;1.30;;;;;;;24.12;26.12;101849.50;4827859;29;20030;-84
2023/05/16 11:32:04;;;;;;;5.20;1.30;;;;;;;25.13;24.06;101852.19;4842332;29;20042;-85
2023/05/16 11:34:36;;;;;;;4.15;1.23;;;;;;;24.78;24.30;101848.22;4846219;24;20159;-85
2023/05/16 11:37:01;;;;;;;4.30;1.30;;;;;;;23.46;25.23;101844.00;4844641;29;20083;-85
2023/05/16 11:39:32;;;;;;;2.53;0.93;;;;;;;23.17;25.74;101841.44;4842743;29;20295;-85
2023/05/16 11:41:57;;;;;;;4.45;1.30;;;;;;;23.87;25.34;101849.00;4843769;29;20501;-85
2023/05/16 11:44:22;;;;;;;2.80;1.27;;;;;;;23.14;25.42;101844.72;4844498;29;20041;-85
2023/05/16 11:49:19;;;;;;;4.10;1.20;;;;;;;22.55;26.23;101843.47;4843014;24;20066;-84
2023/05/16 11:51:44;;;;;;;1.85;0.95;;;;;;;21.87;26.84;101839.94;4827594;29;20042;-84
2023/05/16 11:54:11;;;;;;;4.85;1.30;;;;;;;20.94;27.77;101849.19;4842465;29;20038;-84
2023/05/16 11:56:37;;;;;;;3.95;1.00;;;;;;;20.05;29.30;101845.56;4827309;29;20086;-85
2023/05/16 11:59:03;;;;;;;3.10;1.08;;;;;;;19.23;31.04;101851.41;4838123;29;20038;-84
2023/05/16 12:01:36;;;;;;;3.05;1.30;;;;;;;19.40;31.12;101853.47;4843123;29;20041;-84
2023/05/16 12:04:06;;;;;;;5.10;1.40;;;;;;;21.28;29.76;101858.34;4840757;29;20034;-84
2023/05/16 12:06:32;;;;;;;3.80;1.15;;;;;;;22.29;28.94;101869.69;4844733;29;20026;-84
2023/05/16 12:08:57;;;;;;;5.60;1.40;;;;;;;21.55;28.67;101855.00;4812216;29;20044;-84
2023/05/16 12:11:23;;;;;;;4.70;1.20;;;;;;;22.39;28.27;101858.03;4836769;29;20022;-84
2023/05/16 12:13:48;;;;;;;4.95;1.30;;;;;;;21.69;28.18;101854.72;4843717;29;20048;-84
2023/05/16 12:16:13;;;;;;;5.40;1.48;;;;;;;21.96;27.68;101850.25;4826018;29;20112;-84
2023/05/16 12:18:39;;;;;;;3.05;1.20;;;;;;;23.02;27.36;101857.75;4826296;29;20022;-84
2023/05/16 12:21:05;;;;;;;4.60;1.25;;;;;;;23.11;27.03;101850.75;4843728;29;20391;-85
2023/05/16 12:23:32;;;;;;;4.88;1.60;;;;;;;23.32;25.76;101848.22;4826198;29;20037;-84
2023/05/16 12:25:59;;;;;;;3.28;1.50;;;;;;;23.49;24.95;101859.13;4841155;29;20038;-84
2023/05/16 12:28:25;;;;;;;3.00;1.27;;;;;;;22.92;26.48;101857.66;4837903;29;20500;-83
2023/05/16 12:30:50;;;;;;;5.45;1.45;;;;;;;22.88;26.80;101853.75;4826989;29;20042;-84
2023/05/16 12:33:18;;;;;;;3.42;1.35;;;;;;;22.15;27.71;101850.00;4829788;29;20428;-84
2023/05/16 12:35:44;;;;;;;4.65;1.42;;;;;;;21.39;29.61;101861.28;4829736;29;20037;-84
2023/05/16 12:38:11;;;;;;;3.33;1.65;;;;;;;20.47;29.68;101855.56;4817857;29;20042;-83
2023/05/16 12:40:38;;;;;;;5.38;1.60;;;;;;;20.12;30.13;101860.75;4841216;29;20079;-84
2023/05/16 12:43:13;;;;;;;5.50;1.50;;;;;;;20.09;31.19;101861.25;4834889;29;20464;-83
2023/05/16 12:45:38;;;;;;;3.63;1.40;;;;;;;19.57;31.85;101869.22;4836740;29;20452;-84
2023/05/16 12:48:05;;;;;;;5.15;1.80;;;;;;;19.66;31.13;101862.31;4840500;29;20042;-84
2023/05/16 12:50:31;;;;;;;3.70;1.42;;;;;;;19.48;31.58;101861.31;4833745;29;20026;-83
2023/05/16 12:52:58;;;;;;;7.07;1.38;;;;;;;18.85;33.68;101857.06;4826313;29;20037;-83
2023/05/16 12:55:24;;;;;;;5.53;1.58;;;;;;;19.11;32.92;101871.50;4834650;29;20472;-84
2023/05/16 12:57:49;;;;;;;3.35;1.48;;;;;;;19.92;31.32;101866.56;4842418;29;20090;-83
2023/05/16 13:06:57;;;;;;;6.90;1.50;;;;;;;19.82;30.88;101864.38;4835633;29;20513;-84
2023/05/16 13:09:22;;;;;;;3.55;1.60;;;;;;;20.34;29.46;101865.66;4835232;29;20042;-84
2023/05/16 13:11:51;;;;;;;4.38;1.67;;;;;;;19.83;29.49;101876.16;4833956;29;20108;-84
2023/05/16 13:14:32;;;;;;;2.05;1.25;;;;;;;19.12;29.52;101879.44;4829218;29;20079;-83
2023/05/16 13:17:03;;;;;;;5.35;1.23;;;;;;;18.34;31.95;101870.84;4832245;29;20030;-83
2023/05/16 13:19:47;;;;;;;4.03;1.70;;;;;;;17.46;33.59;101877.97;4823128;29;20026;-83
2023/05/16 13:22:21;;;;;;;2.70;1.30;;;;;;;16.87;35.21;101872.53;4824495;29;20030;-82
2023/05/16 13:24:48;;;;;;;3.30;1.60;;;;;;;16.67;35.97;101881.56;4830235;29;20034;-83
2023/05/16 13:27:17;;;;;;;3.65;1.40;;;;;;;16.28;37.13;101877.84;4832281;29;20027;-83
2023/05/16 13:29:43;;;;;;;4.20;1.38;;;;;;;15.98;38.49;101884.53;4832079;29;20049;-84
2023/05/16 13:32:14;;;;;;;3.25;1.50;;;;;;;15.54;40.26;101894.06;4823982;29;20503;-84
2023/05/16 13:34:43;;;;;;;5.45;1.60;;;;;;;15.50;41.04;101898.22;4825129;29;20046;-83
2023/05/16 13:37:14;;;;;;;4.05;1.63;;;;;;;15.35;42.89;101901.09;4805657;29;20049;-83
2023/05/16 13:39:43;;;;;;;5.35;1.40;;;;;;;15.43;44.17;101915.31;4825129;29;20535;-84
2023/05/16 13:42:17;;;;;;;3.03;1.30;;;;;;;15.12;45.05;101921.22;4841805;29;20025;-83
2023/05/16 13:44:52;;;;;;;3.90;1.58;;;;;;;14.92;45.56;101916.53;4833373;29;20049;-83
2023/05/16 13:47:31;;;;;;;5.68;1.52;;;;;;;14.70;46.44;101919.31;4826746;29;20087;-82